Terminal Aerodrome Forecast
Issued by NWS Sterling, VA

Current Version | Previous Version | Graphics & Text | Print | Product List | Glossary On
Versions: 1 2 3 4 5 6 7 8 9 10 11 12 13 14 15 16 17 18 19 20 21 22 23
663
FTUS41 KLWX 111726
TAFDCA
TAF
KDCA 111726Z 1118/1224 28004KT P6SM FEW150 SCT250
     FM112100 17004KT P6SM FEW150 SCT250
     FM120900 17008KT P6SM SCT025 OVC150
     FM121400 22009KT P6SM SCT025 BKN090
     FM121700 27012KT P6SM SCT045 BKN070
     FM122000 29017G25KT P6SM SCT060 BKN070
     FM122100 30018G33KT P6SM SCT060 BKN140=

USA.gov is the U.S. government's official web portal to all federal, state and local government web resources and services.